sensor_id;sensor_type;location;lat;lon;timestamp;P1;durP1;ratioP1;P2;durP2;ratioP2
47922;SDS011;33688;44.354;9.228;2024-01-15T00:00:43;1.83;;;1.52;;
47922;SDS011;33688;44.354;9.228;2024-01-15T00:03:09;3.03;;;1.15;;
47922;SDS011;33688;44.354;9.228;2024-01-15T00:05:36;1.30;;;1.20;;
47922;SDS011;33688;44.354;9.228;2024-01-15T00:08:01;0.80;;;0.80;;
47922;SDS011;33688;44.354;9.228;2024-01-15T00:10:27;1.80;;;1.45;;
47922;SDS011;33688;44.354;9.228;2024-01-15T00:12:53;1.60;;;1.15;;
47922;SDS011;33688;44.354;9.228;2024-01-15T00:15:19;1.23;;;1.08;;
47922;SDS011;33688;44.354;9.228;2024-01-15T00:17:45;1.45;;;1.20;;
47922;SDS011;33688;44.354;9.228;2024-01-15T00:20:11;1.20;;;1.00;;
47922;SDS011;33688;44.354;9.228;2024-01-15T00:22:38;2.10;;;1.48;;
47922;SDS011;33688;44.354;9.228;2024-01-15T00:25:04;1.23;;;1.13;;
47922;SDS011;33688;44.354;9.228;2024-01-15T00:27:30;1.50;;;1.30;;
47922;SDS011;33688;44.354;9.228;2024-01-15T00:29:57;1.58;;;1.17;;
47922;SDS011;33688;44.354;9.228;2024-01-15T00:32:29;1.10;;;1.00;;
47922;SDS011;33688;44.354;9.228;2024-01-15T00:34:55;1.10;;;1.00;;
47922;SDS011;33688;44.354;9.228;2024-01-15T00:37:21;1.70;;;1.30;;
47922;SDS011;33688;44.354;9.228;2024-01-15T00:39:46;1.17;;;1.02;;
47922;SDS011;33688;44.354;9.228;2024-01-15T00:42:12;1.67;;;1.23;;
47922;SDS011;33688;44.354;9.228;2024-01-15T00:44:38;1.05;;;0.95;;
47922;SDS011;33688;44.354;9.228;2024-01-15T00:47:04;0.93;;;0.90;;
47922;SDS011;33688;44.354;9.228;2024-01-15T00:49:30;1.63;;;1.38;;
47922;SDS011;33688;44.354;9.228;2024-01-15T00:51:56;0.90;;;0.90;;
47922;SDS011;33688;44.354;9.228;2024-01-15T00:54:21;1.42;;;1.30;;
47922;SDS011;33688;44.354;9.228;2024-01-15T00:56:47;1.25;;;1.13;;
47922;SDS011;33688;44.354;9.228;2024-01-15T00:59:13;2.88;;;1.00;;
47922;SDS011;33688;44.354;9.228;2024-01-15T01:01:40;1.42;;;1.30;;
47922;SDS011;33688;44.354;9.228;2024-01-15T01:04:11;1.17;;;1.00;;
47922;SDS011;33688;44.354;9.228;2024-01-15T01:06:37;1.45;;;1.10;;
47922;SDS011;33688;44.354;9.228;2024-01-15T01:09:05;1.27;;;1.10;;
47922;SDS011;33688;44.354;9.228;2024-01-15T01:11:32;1.30;;;1.00;;
47922;SDS011;33688;44.354;9.228;2024-01-15T01:13:57;0.90;;;0.80;;
47922;SDS011;33688;44.354;9.228;2024-01-15T01:16:23;1.10;;;1.00;;
47922;SDS011;33688;44.354;9.228;2024-01-15T01:18:49;1.65;;;0.95;;
47922;SDS011;33688;44.354;9.228;2024-01-15T01:21:15;1.45;;;1.10;;
47922;SDS011;33688;44.354;9.228;2024-01-15T01:23:41;1.38;;;1.20;;
47922;SDS011;33688;44.354;9.228;2024-01-15T01:26:06;1.08;;;0.98;;
47922;SDS011;33688;44.354;9.228;2024-01-15T01:28:32;1.10;;;1.00;;
47922;SDS011;33688;44.354;9.228;2024-01-15T01:30:59;1.23;;;1.10;;
47922;SDS011;33688;44.354;9.228;2024-01-15T01:33:25;1.45;;;1.33;;
47922;SDS011;33688;44.354;9.228;2024-01-15T01:35:51;1.00;;;0.90;;
47922;SDS011;33688;44.354;9.228;2024-01-15T01:38:18;1.00;;;0.90;;
47922;SDS011;33688;44.354;9.228;2024-01-15T01:40:44;1.33;;;1.00;;
47922;SDS011;33688;44.354;9.228;2024-01-15T01:43:10;1.33;;;1.10;;
47922;SDS011;33688;44.354;9.228;2024-01-15T01:45:35;1.30;;;1.20;;
47922;SDS011;33688;44.354;9.228;2024-01-15T01:48:01;1.10;;;1.00;;
47922;SDS011;33688;44.354;9.228;2024-01-15T01:50:29;1.17;;;1.08;;
47922;SDS011;33688;44.354;9.228;2024-01-15T01:52:56;1.10;;;1.00;;
47922;SDS011;33688;44.354;9.228;2024-01-15T01:55:23;0.98;;;0.82;;
47922;SDS011;33688;44.354;9.228;2024-01-15T01:57:51;2.10;;;0.82;;
47922;SDS011;33688;44.354;9.228;2024-01-15T02:00:18;1.80;;;1.02;;
47922;SDS011;33688;44.354;9.228;2024-01-15T02:02:43;1.08;;;1.00;;
47922;SDS011;33688;44.354;9.228;2024-01-15T02:05:10;1.15;;;1.05;;
47922;SDS011;33688;44.354;9.228;2024-01-15T02:07:39;3.22;;;1.40;;
47922;SDS011;33688;44.354;9.228;2024-01-15T02:10:06;0.98;;;0.95;;
47922;SDS011;33688;44.354;9.228;2024-01-15T02:12:32;2.63;;;1.35;;
47922;SDS011;33688;44.354;9.228;2024-01-15T02:14:58;1.50;;;1.30;;
47922;SDS011;33688;44.354;9.228;2024-01-15T02:17:24;1.85;;;1.40;;
47922;SDS011;33688;44.354;9.228;2024-01-15T02:19:50;1.33;;;1.17;;
47922;SDS011;33688;44.354;9.228;2024-01-15T02:22:16;1.45;;;1.35;;
47922;SDS011;33688;44.354;9.228;2024-01-15T02:24:41;1.23;;;0.90;;
47922;SDS011;33688;44.354;9.228;2024-01-15T02:27:07;1.08;;;0.90;;
47922;SDS011;33688;44.354;9.228;2024-01-15T02:29:33;1.05;;;0.95;;
47922;SDS011;33688;44.354;9.228;2024-01-15T02:32:03;1.00;;;0.98;;
47922;SDS011;33688;44.354;9.228;2024-01-15T02:34:31;1.60;;;1.20;;
47922;SDS011;33688;44.354;9.228;2024-01-15T02:36:58;2.08;;;1.20;;
47922;SDS011;33688;44.354;9.228;2024-01-15T02:39:24;1.15;;;1.05;;
47922;SDS011;33688;44.354;9.228;2024-01-15T02:41:50;1.02;;;0.93;;
47922;SDS011;33688;44.354;9.228;2024-01-15T02:44:16;1.30;;;1.00;;
47922;SDS011;33688;44.354;9.228;2024-01-15T02:46:43;1.13;;;1.00;;
47922;SDS011;33688;44.354;9.228;2024-01-15T02:49:09;1.75;;;1.08;;
47922;SDS011;33688;44.354;9.228;2024-01-15T02:51:35;1.10;;;1.00;;
47922;SDS011;33688;44.354;9.228;2024-01-15T02:54:02;1.85;;;1.13;;
47922;SDS011;33688;44.354;9.228;2024-01-15T02:56:28;1.10;;;1.00;;
47922;SDS011;33688;44.354;9.228;2024-01-15T02:58:54;1.08;;;0.98;;
47922;SDS011;33688;44.354;9.228;2024-01-15T03:01:20;0.85;;;0.85;;
47922;SDS011;33688;44.354;9.228;2024-01-15T03:03:47;1.00;;;1.00;;
47922;SDS011;33688;44.354;9.228;2024-01-15T03:06:13;0.85;;;0.85;;
47922;SDS011;33688;44.354;9.228;2024-01-15T03:08:38;1.25;;;1.05;;
47922;SDS011;33688;44.354;9.228;2024-01-15T03:11:06;1.33;;;1.10;;
47922;SDS011;33688;44.354;9.228;2024-01-15T03:13:35;1.20;;;1.00;;
47922;SDS011;33688;44.354;9.228;2024-01-15T03:16:04;0.80;;;0.80;;
47922;SDS011;33688;44.354;9.228;2024-01-15T03:18:31;1.17;;;1.08;;
47922;SDS011;33688;44.354;9.228;2024-01-15T03:20:57;1.20;;;1.10;;
47922;SDS011;33688;44.354;9.228;2024-01-15T03:23:23;1.05;;;0.93;;
47922;SDS011;33688;44.354;9.228;2024-01-15T03:25:49;1.20;;;1.10;;
47922;SDS011;33688;44.354;9.228;2024-01-15T03:28:15;1.60;;;1.48;;
47922;SDS011;33688;44.354;9.228;2024-01-15T03:30:41;2.13;;;1.08;;
47922;SDS011;33688;44.354;9.228;2024-01-15T03:33:06;1.77;;;1.40;;
47922;SDS011;33688;44.354;9.228;2024-01-15T03:35:32;1.02;;;0.98;;
47922;SDS011;33688;44.354;9.228;2024-01-15T03:40:28;1.45;;;1.10;;
47922;SDS011;33688;44.354;9.228;2024-01-15T03:42:54;1.30;;;1.20;;
47922;SDS011;33688;44.354;9.228;2024-01-15T03:45:19;1.13;;;1.00;;
47922;SDS011;33688;44.354;9.228;2024-01-15T03:47:47;0.95;;;0.95;;
47922;SDS011;33688;44.354;9.228;2024-01-15T03:50:13;1.20;;;1.00;;
47922;SDS011;33688;44.354;9.228;2024-01-15T03:52:39;1.05;;;0.98;;
47922;SDS011;33688;44.354;9.228;2024-01-15T03:55:05;1.02;;;0.93;;
47922;SDS011;33688;44.354;9.228;2024-01-15T03:57:31;1.20;;;1.10;;
47922;SDS011;33688;44.354;9.228;2024-01-15T03:59:57;3.88;;;1.10;;
47922;SDS011;33688;44.354;9.228;2024-01-15T04:02:24;1.10;;;1.00;;
47922;SDS011;33688;44.354;9.228;2024-01-15T04:04:49;1.13;;;0.90;;
47922;SDS011;33688;44.354;9.228;2024-01-15T04:07:15;1.02;;;0.85;;
47922;SDS011;33688;44.354;9.228;2024-01-15T04:09:41;1.50;;;0.77;;
47922;SDS011;33688;44.354;9.228;2024-01-15T04:12:07;2.38;;;1.15;;
47922;SDS011;33688;44.354;9.228;2024-01-15T04:14:33;1.10;;;1.00;;
47922;SDS011;33688;44.354;9.228;2024-01-15T04:16:58;1.45;;;0.98;;
47922;SDS011;33688;44.354;9.228;2024-01-15T04:19:24;1.48;;;1.05;;
47922;SDS011;33688;44.354;9.228;2024-01-15T04:21:50;1.23;;;1.13;;
47922;SDS011;33688;44.354;9.228;2024-01-15T04:24:16;0.60;;;0.60;;
47922;SDS011;33688;44.354;9.228;2024-01-15T04:26:43;0.77;;;0.77;;
47922;SDS011;33688;44.354;9.228;2024-01-15T04:29:09;1.00;;;0.90;;
47922;SDS011;33688;44.354;9.228;2024-01-15T04:31:36;1.10;;;1.00;;
47922;SDS011;33688;44.354;9.228;2024-01-15T04:34:03;1.15;;;0.98;;
47922;SDS011;33688;44.354;9.228;2024-01-15T04:36:30;1.08;;;0.98;;
47922;SDS011;33688;44.354;9.228;2024-01-15T04:38:56;1.00;;;0.90;;
47922;SDS011;33688;44.354;9.228;2024-01-15T04:41:22;1.33;;;1.23;;
47922;SDS011;33688;44.354;9.228;2024-01-15T04:43:48;1.25;;;0.93;;
47922;SDS011;33688;44.354;9.228;2024-01-15T04:46:14;1.10;;;1.02;;
47922;SDS011;33688;44.354;9.228;2024-01-15T04:48:40;1.38;;;1.10;;
47922;SDS011;33688;44.354;9.228;2024-01-15T04:51:05;2.13;;;1.33;;
47922;SDS011;33688;44.354;9.228;2024-01-15T04:53:34;0.68;;;0.68;;
47922;SDS011;33688;44.354;9.228;2024-01-15T04:56:01;1.52;;;1.08;;
47922;SDS011;33688;44.354;9.228;2024-01-15T04:58:26;0.88;;;0.88;;
47922;SDS011;33688;44.354;9.228;2024-01-15T05:00:52;0.60;;;0.60;;
47922;SDS011;33688;44.354;9.228;2024-01-15T05:03:19;1.10;;;0.80;;
47922;SDS011;33688;44.354;9.228;2024-01-15T05:05:45;1.10;;;1.00;;
47922;SDS011;33688;44.354;9.228;2024-01-15T05:08:11;1.08;;;0.93;;
47922;SDS011;33688;44.354;9.228;2024-01-15T05:10:37;0.98;;;0.98;;
47922;SDS011;33688;44.354;9.228;2024-01-15T05:13:02;1.52;;;1.10;;
47922;SDS011;33688;44.354;9.228;2024-01-15T05:15:28;0.73;;;0.73;;
47922;SDS011;33688;44.354;9.228;2024-01-15T05:17:54;1.30;;;1.20;;
47922;SDS011;33688;44.354;9.228;2024-01-15T05:20:20;0.93;;;0.90;;
47922;SDS011;33688;44.354;9.228;2024-01-15T05:22:46;1.02;;;0.95;;
47922;SDS011;33688;44.354;9.228;2024-01-15T05:25:12;1.08;;;0.90;;
47922;SDS011;33688;44.354;9.228;2024-01-15T05:27:37;1.17;;;0.80;;
47922;SDS011;33688;44.354;9.228;2024-01-15T05:30:03;1.08;;;0.98;;
47922;SDS011;33688;44.354;9.228;2024-01-15T05:32:31;0.90;;;0.90;;
47922;SDS011;33688;44.354;9.228;2024-01-15T05:34:57;0.80;;;0.80;;
47922;SDS011;33688;44.354;9.228;2024-01-15T05:37:23;1.52;;;1.20;;
47922;SDS011;33688;44.354;9.228;2024-01-15T05:39:49;0.70;;;0.70;;
47922;SDS011;33688;44.354;9.228;2024-01-15T05:42:14;0.80;;;0.80;;
47922;SDS011;33688;44.354;9.228;2024-01-15T05:44:40;1.02;;;0.90;;
47922;SDS011;33688;44.354;9.228;2024-01-15T05:47:06;0.88;;;0.88;;
47922;SDS011;33688;44.354;9.228;2024-01-15T05:52:02;0.73;;;0.73;;
47922;SDS011;33688;44.354;9.228;2024-01-15T05:54:29;0.85;;;0.85;;
47922;SDS011;33688;44.354;9.228;2024-01-15T05:56:55;1.35;;;1.20;;
47922;SDS011;33688;44.354;9.228;2024-01-15T05:59:21;0.85;;;0.85;;
47922;SDS011;33688;44.354;9.228;2024-01-15T06:01:47;0.95;;;0.85;;
47922;SDS011;33688;44.354;9.228;2024-01-15T06:04:12;1.08;;;0.98;;
47922;SDS011;33688;44.354;9.228;2024-01-15T06:06:38;1.15;;;0.80;;
47922;SDS011;33688;44.354;9.228;2024-01-15T06:09:04;1.17;;;1.02;;
47922;SDS011;33688;44.354;9.228;2024-01-15T06:11:34;1.38;;;1.27;;
47922;SDS011;33688;44.354;9.228;2024-01-15T06:14:00;2.65;;;1.40;;
47922;SDS011;33688;44.354;9.228;2024-01-15T06:16:26;0.85;;;0.80;;
47922;SDS011;33688;44.354;9.228;2024-01-15T06:18:53;1.08;;;0.80;;
47922;SDS011;33688;44.354;9.228;2024-01-15T06:21:18;0.73;;;0.73;;
47922;SDS011;33688;44.354;9.228;2024-01-15T06:23:44;1.15;;;0.95;;
47922;SDS011;33688;44.354;9.228;2024-01-15T06:26:13;1.30;;;0.90;;
47922;SDS011;33688;44.354;9.228;2024-01-15T06:28:39;0.90;;;0.90;;
47922;SDS011;33688;44.354;9.228;2024-01-15T06:31:06;1.20;;;1.10;;
47922;SDS011;33688;44.354;9.228;2024-01-15T06:33:32;1.10;;;1.00;;
47922;SDS011;33688;44.354;9.228;2024-01-15T06:35:58;1.10;;;1.00;;
47922;SDS011;33688;44.354;9.228;2024-01-15T06:38:23;1.35;;;0.88;;
47922;SDS011;33688;44.354;9.228;2024-01-15T06:40:50;0.80;;;0.80;;
47922;SDS011;33688;44.354;9.228;2024-01-15T06:43:17;1.00;;;0.95;;
47922;SDS011;33688;44.354;9.228;2024-01-15T06:45:45;1.38;;;1.27;;
47922;SDS011;33688;44.354;9.228;2024-01-15T06:48:11;0.90;;;0.90;;
47922;SDS011;33688;44.354;9.228;2024-01-15T06:50:40;0.93;;;0.80;;
47922;SDS011;33688;44.354;9.228;2024-01-15T06:53:06;1.15;;;0.88;;
47922;SDS011;33688;44.354;9.228;2024-01-15T06:55:31;1.27;;;1.00;;
47922;SDS011;33688;44.354;9.228;2024-01-15T06:57:58;0.95;;;0.90;;
47922;SDS011;33688;44.354;9.228;2024-01-15T07:00:25;1.10;;;1.00;;
47922;SDS011;33688;44.354;9.228;2024-01-15T07:02:52;1.20;;;1.10;;
47922;SDS011;33688;44.354;9.228;2024-01-15T07:05:20;0.80;;;0.80;;
47922;SDS011;33688;44.354;9.228;2024-01-15T07:07:46;1.10;;;0.90;;
47922;SDS011;33688;44.354;9.228;2024-01-15T07:10:12;0.80;;;0.80;;
47922;SDS011;33688;44.354;9.228;2024-01-15T07:12:39;0.82;;;0.80;;
47922;SDS011;33688;44.354;9.228;2024-01-15T07:15:08;1.20;;;1.10;;
47922;SDS011;33688;44.354;9.228;2024-01-15T07:17:34;1.15;;;0.93;;
47922;SDS011;33688;44.354;9.228;2024-01-15T07:20:03;1.00;;;0.90;;
47922;SDS011;33688;44.354;9.228;2024-01-15T07:22:29;0.80;;;0.80;;
47922;SDS011;33688;44.354;9.228;2024-01-15T07:24:55;0.70;;;0.70;;
47922;SDS011;33688;44.354;9.228;2024-01-15T07:27:21;0.75;;;0.75;;
47922;SDS011;33688;44.354;9.228;2024-01-15T07:29:47;1.13;;;1.02;;
47922;SDS011;33688;44.354;9.228;2024-01-15T07:32:14;0.88;;;0.80;;
47922;SDS011;33688;44.354;9.228;2024-01-15T07:34:40;1.15;;;1.05;;
47922;SDS011;33688;44.354;9.228;2024-01-15T07:37:05;0.95;;;0.90;;
47922;SDS011;33688;44.354;9.228;2024-01-15T07:39:31;1.17;;;0.90;;
47922;SDS011;33688;44.354;9.228;2024-01-15T07:41:58;0.73;;;0.73;;
47922;SDS011;33688;44.354;9.228;2024-01-15T07:44:25;1.42;;;0.85;;
47922;SDS011;33688;44.354;9.228;2024-01-15T07:46:51;1.48;;;1.38;;
47922;SDS011;33688;44.354;9.228;2024-01-15T07:49:16;1.00;;;1.00;;
47922;SDS011;33688;44.354;9.228;2024-01-15T07:51:43;2.20;;;0.90;;
47922;SDS011;33688;44.354;9.228;2024-01-15T07:54:09;5.18;;;1.27;;
47922;SDS011;33688;44.354;9.228;2024-01-15T07:56:52;3.97;;;1.20;;
47922;SDS011;33688;44.354;9.228;2024-01-15T07:59:23;2.85;;;1.08;;
47922;SDS011;33688;44.354;9.228;2024-01-15T08:01:50;2.28;;;1.80;;
47922;SDS011;33688;44.354;9.228;2024-01-15T08:04:18;3.28;;;1.63;;
47922;SDS011;33688;44.354;9.228;2024-01-15T08:06:47;3.40;;;1.55;;
47922;SDS011;33688;44.354;9.228;2024-01-15T08:09:13;2.15;;;1.60;;
47922;SDS011;33688;44.354;9.228;2024-01-15T08:11:39;3.15;;;2.08;;
47922;SDS011;33688;44.354;9.228;2024-01-15T08:14:09;5.63;;;2.38;;
47922;SDS011;33688;44.354;9.228;2024-01-15T08:16:36;3.75;;;1.95;;
47922;SDS011;33688;44.354;9.228;2024-01-15T08:19:03;3.30;;;2.10;;
47922;SDS011;33688;44.354;9.228;2024-01-15T08:21:29;3.67;;;2.15;;
47922;SDS011;33688;44.354;9.228;2024-01-15T08:23:59;6.20;;;1.70;;
47922;SDS011;33688;44.354;9.228;2024-01-15T08:26:27;4.13;;;2.22;;
47922;SDS011;33688;44.354;9.228;2024-01-15T08:28:54;4.00;;;2.20;;
47922;SDS011;33688;44.354;9.228;2024-01-15T08:31:20;3.80;;;1.98;;
47922;SDS011;33688;44.354;9.228;2024-01-15T08:33:46;8.27;;;2.53;;
47922;SDS011;33688;44.354;9.228;2024-01-15T08:36:12;7.25;;;2.70;;
47922;SDS011;33688;44.354;9.228;2024-01-15T08:38:38;1.95;;;1.70;;
47922;SDS011;33688;44.354;9.228;2024-01-15T08:41:04;7.47;;;2.35;;
47922;SDS011;33688;44.354;9.228;2024-01-15T08:43:30;4.10;;;2.40;;
47922;SDS011;33688;44.354;9.228;2024-01-15T08:45:59;5.10;;;2.67;;
47922;SDS011;33688;44.354;9.228;2024-01-15T08:48:25;6.32;;;1.80;;
47922;SDS011;33688;44.354;9.228;2024-01-15T08:50:53;10.90;;;2.40;;
47922;SDS011;33688;44.354;9.228;2024-01-15T08:53:19;6.47;;;2.50;;
47922;SDS011;33688;44.354;9.228;2024-01-15T08:58:33;5.53;;;2.00;;
47922;SDS011;33688;44.354;9.228;2024-01-15T09:01:02;3.03;;;2.30;;
47922;SDS011;33688;44.354;9.228;2024-01-15T09:03:28;6.57;;;2.55;;
47922;SDS011;33688;44.354;9.228;2024-01-15T09:08:40;4.75;;;2.33;;
47922;SDS011;33688;44.354;9.228;2024-01-15T09:11:06;4.30;;;2.85;;
47922;SDS011;33688;44.354;9.228;2024-01-15T09:13:32;3.28;;;2.50;;
47922;SDS011;33688;44.354;9.228;2024-01-15T09:15:59;9.75;;;2.92;;
47922;SDS011;33688;44.354;9.228;2024-01-15T09:18:25;3.97;;;2.70;;
47922;SDS011;33688;44.354;9.228;2024-01-15T09:20:51;4.45;;;2.80;;
47922;SDS011;33688;44.354;9.228;2024-01-15T09:23:16;4.50;;;2.80;;
47922;SDS011;33688;44.354;9.228;2024-01-15T09:25:42;3.83;;;2.45;;
47922;SDS011;33688;44.354;9.228;2024-01-15T09:28:08;3.58;;;2.35;;
47922;SDS011;33688;44.354;9.228;2024-01-15T09:33:20;3.22;;;2.35;;
47922;SDS011;33688;44.354;9.228;2024-01-15T09:35:45;3.47;;;2.45;;
47922;SDS011;33688;44.354;9.228;2024-01-15T09:38:11;3.05;;;2.28;;
47922;SDS011;33688;44.354;9.228;2024-01-15T09:40:38;4.25;;;2.92;;
47922;SDS011;33688;44.354;9.228;2024-01-15T09:43:08;6.80;;;3.00;;
47922;SDS011;33688;44.354;9.228;2024-01-15T09:45:34;7.43;;;2.85;;
47922;SDS011;33688;44.354;9.228;2024-01-15T09:48:00;4.10;;;2.38;;
47922;SDS011;33688;44.354;9.228;2024-01-15T09:50:26;5.30;;;2.45;;
47922;SDS011;33688;44.354;9.228;2024-01-15T09:52:52;5.82;;;2.95;;
47922;SDS011;33688;44.354;9.228;2024-01-15T09:55:22;5.05;;;2.42;;
47922;SDS011;33688;44.354;9.228;2024-01-15T09:57:48;15.75;;;4.90;;
47922;SDS011;33688;44.354;9.228;2024-01-15T10:00:18;5.40;;;3.30;;
47922;SDS011;33688;44.354;9.228;2024-01-15T10:02:46;7.60;;;3.60;;
47922;SDS011;33688;44.354;9.228;2024-01-15T10:05:12;8.85;;;3.00;;
47922;SDS011;33688;44.354;9.228;2024-01-15T10:07:40;3.28;;;2.47;;
47922;SDS011;33688;44.354;9.228;2024-01-15T10:10:08;3.20;;;2.60;;
47922;SDS011;33688;44.354;9.228;2024-01-15T10:12:36;4.13;;;2.97;;
47922;SDS011;33688;44.354;9.228;2024-01-15T10:15:03;8.20;;;2.60;;
47922;SDS011;33688;44.354;9.228;2024-01-15T10:17:29;4.47;;;2.70;;
47922;SDS011;33688;44.354;9.228;2024-01-15T10:22:41;12.23;;;3.38;;
47922;SDS011;33688;44.354;9.228;2024-01-15T10:25:13;4.20;;;2.83;;
47922;SDS011;33688;44.354;9.228;2024-01-15T10:27:43;8.00;;;2.70;;
47922;SDS011;33688;44.354;9.228;2024-01-15T10:30:11;7.68;;;2.50;;
47922;SDS011;33688;44.354;9.228;2024-01-15T10:32:39;4.00;;;2.85;;
47922;SDS011;33688;44.354;9.228;2024-01-15T10:35:07;3.38;;;2.50;;
47922;SDS011;33688;44.354;9.228;2024-01-15T10:37:33;4.60;;;2.75;;
47922;SDS011;33688;44.354;9.228;2024-01-15T10:40:02;3.50;;;2.50;;
47922;SDS011;33688;44.354;9.228;2024-01-15T10:42:32;3.28;;;2.50;;
47922;SDS011;33688;44.354;9.228;2024-01-15T10:44:57;6.00;;;2.85;;
47922;SDS011;33688;44.354;9.228;2024-01-15T10:47:24;8.80;;;2.72;;
47922;SDS011;33688;44.354;9.228;2024-01-15T10:49:50;7.03;;;3.00;;
47922;SDS011;33688;44.354;9.228;2024-01-15T10:52:17;4.55;;;2.85;;
47922;SDS011;33688;44.354;9.228;2024-01-15T10:54:43;6.72;;;2.28;;
47922;SDS011;33688;44.354;9.228;2024-01-15T10:57:10;5.32;;;3.03;;
47922;SDS011;33688;44.354;9.228;2024-01-15T10:59:37;3.15;;;2.20;;
47922;SDS011;33688;44.354;9.228;2024-01-15T11:02:02;5.65;;;2.65;;
47922;SDS011;33688;44.354;9.228;2024-01-15T11:04:31;6.82;;;2.97;;
47922;SDS011;33688;44.354;9.228;2024-01-15T11:06:58;5.03;;;2.58;;
47922;SDS011;33688;44.354;9.228;2024-01-15T11:09:24;5.75;;;2.45;;
47922;SDS011;33688;44.354;9.228;2024-01-15T11:12:06;8.05;;;2.53;;
47922;SDS011;33688;44.354;9.228;2024-01-15T11:17:57;8.82;;;2.78;;
47922;SDS011;33688;44.354;9.228;2024-01-15T11:20:28;3.88;;;2.22;;
47922;SDS011;33688;44.354;9.228;2024-01-15T11:22:56;4.70;;;2.15;;
47922;SDS011;33688;44.354;9.228;2024-01-15T11:25:23;4.78;;;2.78;;
47922;SDS011;33688;44.354;9.228;2024-01-15T11:27:52;4.50;;;2.90;;
47922;SDS011;33688;44.354;9.228;2024-01-15T11:30:18;3.55;;;2.53;;
47922;SDS011;33688;44.354;9.228;2024-01-15T11:32:47;3.00;;;2.53;;
47922;SDS011;33688;44.354;9.228;2024-01-15T11:35:15;3.63;;;2.33;;
47922;SDS011;33688;44.354;9.228;2024-01-15T11:42:58;5.20;;;2.85;;
47922;SDS011;33688;44.354;9.228;2024-01-15T11:45:25;3.45;;;2.38;;
47922;SDS011;33688;44.354;9.228;2024-01-15T11:50:41;4.40;;;2.22;;
47922;SDS011;33688;44.354;9.228;2024-01-15T11:53:14;7.53;;;1.90;;
47922;SDS011;33688;44.354;9.228;2024-01-15T11:55:49;3.60;;;2.22;;
47922;SDS011;33688;44.354;9.228;2024-01-15T11:58:18;7.25;;;2.33;;
47922;SDS011;33688;44.354;9.228;2024-01-15T12:00:47;10.15;;;2.67;;
47922;SDS011;33688;44.354;9.228;2024-01-15T12:03:14;8.27;;;2.28;;
47922;SDS011;33688;44.354;9.228;2024-01-15T12:05:40;2.60;;;2.40;;
47922;SDS011;33688;44.354;9.228;2024-01-15T12:08:09;3.22;;;2.28;;
47922;SDS011;33688;44.354;9.228;2024-01-15T12:10:38;3.42;;;2.08;;
47922;SDS011;33688;44.354;9.228;2024-01-15T12:13:12;2.65;;;1.92;;
47922;SDS011;33688;44.354;9.228;2024-01-15T12:15:43;4.05;;;2.30;;
47922;SDS011;33688;44.354;9.228;2024-01-15T12:18:12;3.30;;;2.60;;
47922;SDS011;33688;44.354;9.228;2024-01-15T12:20:41;6.28;;;2.83;;
47922;SDS011;33688;44.354;9.228;2024-01-15T12:23:12;4.43;;;2.45;;
47922;SDS011;33688;44.354;9.228;2024-01-15T12:25:39;3.10;;;1.73;;
47922;SDS011;33688;44.354;9.228;2024-01-15T12:28:05;4.65;;;2.50;;
47922;SDS011;33688;44.354;9.228;2024-01-15T12:30:33;2.85;;;2.55;;
47922;SDS011;33688;44.354;9.228;2024-01-15T12:33:01;3.50;;;2.25;;
47922;SDS011;33688;44.354;9.228;2024-01-15T12:35:31;4.30;;;2.45;;
47922;SDS011;33688;44.354;9.228;2024-01-15T12:38:00;3.97;;;2.17;;
47922;SDS011;33688;44.354;9.228;2024-01-15T12:40:27;3.13;;;2.72;;
47922;SDS011;33688;44.354;9.228;2024-01-15T12:42:53;4.90;;;2.30;;
47922;SDS011;33688;44.354;9.228;2024-01-15T12:45:21;3.28;;;1.98;;
47922;SDS011;33688;44.354;9.228;2024-01-15T12:47:47;5.25;;;2.03;;
47922;SDS011;33688;44.354;9.228;2024-01-15T12:50:13;3.38;;;2.35;;
47922;SDS011;33688;44.354;9.228;2024-01-15T12:52:40;2.42;;;2.08;;
47922;SDS011;33688;44.354;9.228;2024-01-15T12:55:07;3.78;;;2.15;;
47922;SDS011;33688;44.354;9.228;2024-01-15T12:57:34;4.22;;;2.40;;
47922;SDS011;33688;44.354;9.228;2024-01-15T13:00:02;2.25;;;1.60;;
47922;SDS011;33688;44.354;9.228;2024-01-15T13:02:33;3.93;;;2.50;;
47922;SDS011;33688;44.354;9.228;2024-01-15T13:04:59;3.38;;;2.65;;
47922;SDS011;33688;44.354;9.228;2024-01-15T13:07:25;4.72;;;1.90;;
47922;SDS011;33688;44.354;9.228;2024-01-15T13:09:51;5.50;;;2.08;;
47922;SDS011;33688;44.354;9.228;2024-01-15T13:12:19;4.22;;;2.55;;
47922;SDS011;33688;44.354;9.228;2024-01-15T13:14:46;3.33;;;2.50;;
47922;SDS011;33688;44.354;9.228;2024-01-15T13:17:12;4.53;;;2.53;;
47922;SDS011;33688;44.354;9.228;2024-01-15T13:19:40;3.63;;;1.98;;
47922;SDS011;33688;44.354;9.228;2024-01-15T13:22:06;2.90;;;1.95;;
47922;SDS011;33688;44.354;9.228;2024-01-15T13:24:35;2.92;;;2.35;;
47922;SDS011;33688;44.354;9.228;2024-01-15T13:27:02;4.03;;;1.95;;
47922;SDS011;33688;44.354;9.228;2024-01-15T13:29:29;3.13;;;2.20;;
47922;SDS011;33688;44.354;9.228;2024-01-15T13:31:56;2.67;;;1.98;;
47922;SDS011;33688;44.354;9.228;2024-01-15T13:34:23;3.00;;;2.03;;
47922;SDS011;33688;44.354;9.228;2024-01-15T13:36:49;3.95;;;2.20;;
47922;SDS011;33688;44.354;9.228;2024-01-15T13:39:15;3.10;;;1.95;;
47922;SDS011;33688;44.354;9.228;2024-01-15T13:41:48;2.97;;;2.03;;
47922;SDS011;33688;44.354;9.228;2024-01-15T13:44:13;5.18;;;2.20;;
47922;SDS011;33688;44.354;9.228;2024-01-15T13:46:39;2.92;;;2.20;;
47922;SDS011;33688;44.354;9.228;2024-01-15T13:49:05;3.33;;;2.58;;
47922;SDS011;33688;44.354;9.228;2024-01-15T13:51:31;4.18;;;2.20;;
47922;SDS011;33688;44.354;9.228;2024-01-15T13:53:57;4.00;;;2.13;;
47922;SDS011;33688;44.354;9.228;2024-01-15T13:56:23;2.80;;;2.15;;
47922;SDS011;33688;44.354;9.228;2024-01-15T13:58:49;3.47;;;2.45;;
47922;SDS011;33688;44.354;9.228;2024-01-15T14:01:15;3.72;;;2.35;;
47922;SDS011;33688;44.354;9.228;2024-01-15T14:03:44;4.07;;;2.00;;
47922;SDS011;33688;44.354;9.228;2024-01-15T14:06:10;2.35;;;1.80;;
47922;SDS011;33688;44.354;9.228;2024-01-15T14:08:36;3.22;;;1.98;;
47922;SDS011;33688;44.354;9.228;2024-01-15T14:11:03;2.60;;;2.40;;
47922;SDS011;33688;44.354;9.228;2024-01-15T14:13:29;3.15;;;2.05;;
47922;SDS011;33688;44.354;9.228;2024-01-15T14:15:55;2.50;;;1.90;;
47922;SDS011;33688;44.354;9.228;2024-01-15T14:18:22;4.22;;;2.33;;
47922;SDS011;33688;44.354;9.228;2024-01-15T14:20:48;4.25;;;2.28;;
47922;SDS011;33688;44.354;9.228;2024-01-15T14:23:14;8.93;;;2.08;;
47922;SDS011;33688;44.354;9.228;2024-01-15T14:25:39;7.57;;;2.35;;
47922;SDS011;33688;44.354;9.228;2024-01-15T14:28:05;7.88;;;2.20;;
47922;SDS011;33688;44.354;9.228;2024-01-15T14:30:32;2.90;;;2.22;;
47922;SDS011;33688;44.354;9.228;2024-01-15T14:32:57;4.15;;;2.13;;
47922;SDS011;33688;44.354;9.228;2024-01-15T14:35:23;3.15;;;2.20;;
47922;SDS011;33688;44.354;9.228;2024-01-15T14:37:49;3.92;;;2.28;;
47922;SDS011;33688;44.354;9.228;2024-01-15T14:40:15;4.13;;;2.13;;
47922;SDS011;33688;44.354;9.228;2024-01-15T14:42:42;4.00;;;2.38;;
47922;SDS011;33688;44.354;9.228;2024-01-15T14:47:55;6.20;;;2.35;;
47922;SDS011;33688;44.354;9.228;2024-01-15T14:50:22;3.40;;;2.13;;
47922;SDS011;33688;44.354;9.228;2024-01-15T14:52:48;3.60;;;2.05;;
47922;SDS011;33688;44.354;9.228;2024-01-15T14:55:14;2.83;;;2.03;;
47922;SDS011;33688;44.354;9.228;2024-01-15T14:57:40;3.33;;;2.13;;
47922;SDS011;33688;44.354;9.228;2024-01-15T15:00:07;3.67;;;2.10;;
47922;SDS011;33688;44.354;9.228;2024-01-15T15:02:37;7.05;;;2.08;;
47922;SDS011;33688;44.354;9.228;2024-01-15T15:05:03;6.15;;;2.20;;
47922;SDS011;33688;44.354;9.228;2024-01-15T15:07:29;2.10;;;1.90;;
47922;SDS011;33688;44.354;9.228;2024-01-15T15:09:58;3.53;;;1.95;;
47922;SDS011;33688;44.354;9.228;2024-01-15T15:12:24;5.97;;;2.25;;
47922;SDS011;33688;44.354;9.228;2024-01-15T15:14:52;5.53;;;1.85;;